This is the latest recevied weather packets stored in our database for station/object N0MR. If no packets are shown the sender has not sent any weather packets the latest 10 day(s).
| Time | Temp. | Humidity | Pressure | Rain* | Wind** | Luminosity | Snow |
|---|---|---|---|---|---|---|---|
| 1777867917 | 13.33° C | 37% | 997.1 hPa | 0 mm | - | - | - |
| 1777867317 | 13.33° C | 37% | 997.1 hPa | 0 mm | - | - | - |
| 1777866718 | 12.22° C | 39% | 997.7 hPa | 0 mm | - | - | - |
| 1777866118 | 12.22° C | 39% | 997.7 hPa | 0 mm | - | - | - |
| 1777865516 | 11.67° C | 41% | 998.2 hPa | 0 mm | - | - | - |
| 1777864916 | 11.67° C | 41% | 998.2 hPa | 0 mm | - | - | - |
| 1777864318 | 11.67° C | 42% | 998.6 hPa | 0 mm | - | - | - |
| 1777863717 | 11.67° C | 42% | 998.6 hPa | 0 mm | - | - | - |
| 1777863118 | 11.11° C | 42% | 998.9 hPa | 0 mm | - | - | - |
| 1777862517 | 11.11° C | 42% | 998.9 hPa | 0 mm | - | - | - |
| 1777861917 | 11.11° C | 43% | 999.1 hPa | 0 mm | - | - | - |
| 1777861317 | 11.11° C | 43% | 999.1 hPa | 0 mm | - | - | - |
| 1777860717 | 11.67° C | 41% | 999.5 hPa | 0 mm | - | - | - |
| 1777860118 | 11.67° C | 41% | 999.5 hPa | 0 mm | - | - | - |
| 1777859518 | 12.78° C | 39% | 999.8 hPa | 0 mm | - | - | - |
| 1777858918 | 12.78° C | 39% | 999.8 hPa | 0 mm | - | - | - |
| 1777858317 | 13.89° C | 36% | 1000.2 hPa | 0 mm | - | - | - |
| 1777857718 | 14.44° C | 34% | 1000.5 hPa | 0 mm | - | - | - |
| 1777857117 | 14.44° C | 34% | 1000.5 hPa | 0 mm | - | - | - |
| 1777856517 | 15° C | 33% | 1000.8 hPa | 0 mm | - | - | - |
| 1777855917 | 15° C | 33% | 1000.8 hPa | 0 mm | - | - | - |
| 1777855317 | 15° C | 33% | 1001 hPa | 0 mm | - | - | - |
| 1777846919 | 17.22° C | 28% | 1001.7 hPa | 0 mm | - | - | - |
| 1777845119 | 17.22° C | 28% | 1001.8 hPa | 0 mm | - | - | - |
| 1777844521 | 17.22° C | 28% | 1001.8 hPa | 0 mm | - | - | - |
* Rain latest hour (hover to see other rain measurements)
** Current wind speed in m/s (hover to see current wind gust speed)